SBI2049 UUDD-URSS
Flight info
| Callsign | SBI2049 |
|---|---|
| Flight time | 2h 2m |
| Altitude | 37000 |
| Route | LINRU4Q LINRU L4 EKTUT N72 UMSIS N166 ADNET W79 BINOL BINOL1K |
| Aircraft | A21N/M-SADFGIJ1RWYZ/LB1 |
Departure
| Time | 2026-05-05 18:16 |
|---|---|
| Airport | Domodedovo International Airport (UUDD) |
Arrival
| Time | 2026-05-05 20:18 |
|---|---|
| Airport | Sochi International Airport (URSS) |
| Time | Latitude | Longitude | Altitude | Speed | Heading |
|---|---|---|---|---|---|
| 2026-05-05 18:00 | 55.41101 | 37.89406 | 597 ft | 0 kts | 56° |
| 2026-05-05 18:02 | 55.41096 | 37.89395 | 597 ft | 2 kts | 56° |
| 2026-05-05 18:03 | 55.41085 | 37.89366 | 597 ft | 2 kts | 56° |
| 2026-05-05 18:03 | 55.41077 | 37.89345 | 597 ft | 2 kts | 56° |
| 2026-05-05 18:03 | 55.41068 | 37.89323 | 597 ft | 2 kts | 55° |
| 2026-05-05 18:03 | 55.41064 | 37.89298 | 597 ft | 2 kts | 98° |
| 2026-05-05 18:04 | 55.41067 | 37.89280 | 597 ft | 2 kts | 121° |
| 2026-05-05 18:04 | 55.41079 | 37.89261 | 597 ft | 0 kts | 153° |
| 2026-05-05 18:04 | 55.41081 | 37.89259 | 597 ft | 0 kts | 152° |
| 2026-05-05 18:08 | 55.41067 | 37.89276 | 597 ft | 5 kts | 146° |
| 2026-05-05 18:08 | 55.41027 | 37.89324 | 597 ft | 7 kts | 146° |
| 2026-05-05 18:08 | 55.40981 | 37.89379 | 597 ft | 8 kts | 146° |
| 2026-05-05 18:09 | 55.40932 | 37.89439 | 597 ft | 9 kts | 145° |
| 2026-05-05 18:09 | 55.40878 | 37.89503 | 597 ft | 9 kts | 147° |
| 2026-05-05 18:09 | 55.40817 | 37.89562 | 597 ft | 10 kts | 154° |
| 2026-05-05 18:09 | 55.40766 | 37.89583 | 597 ft | 7 kts | 205° |
| 2026-05-05 18:10 | 55.40729 | 37.89506 | 597 ft | 8 kts | 235° |
| 2026-05-05 18:10 | 55.40693 | 37.89413 | 597 ft | 9 kts | 236° |
| 2026-05-05 18:10 | 55.40640 | 37.89350 | 597 ft | 9 kts | 173° |
| 2026-05-05 18:10 | 55.40578 | 37.89411 | 597 ft | 10 kts | 146° |
| 2026-05-05 18:11 | 55.40515 | 37.89488 | 597 ft | 11 kts | 146° |
| 2026-05-05 18:11 | 55.40449 | 37.89566 | 597 ft | 11 kts | 146° |
| 2026-05-05 18:11 | 55.40380 | 37.89648 | 597 ft | 12 kts | 145° |
| 2026-05-05 18:11 | 55.40310 | 37.89734 | 597 ft | 12 kts | 145° |
| 2026-05-05 18:12 | 55.40237 | 37.89821 | 597 ft | 12 kts | 146° |
| 2026-05-05 18:12 | 55.40164 | 37.89909 | 597 ft | 13 kts | 146° |
| 2026-05-05 18:12 | 55.40088 | 37.90000 | 597 ft | 13 kts | 145° |
| 2026-05-05 18:12 | 55.40013 | 37.90091 | 597 ft | 13 kts | 146° |
| 2026-05-05 18:13 | 55.39935 | 37.90185 | 597 ft | 13 kts | 146° |
| 2026-05-05 18:13 | 55.39856 | 37.90279 | 597 ft | 13 kts | 146° |
| 2026-05-05 18:13 | 55.39777 | 37.90375 | 597 ft | 13 kts | 146° |
| 2026-05-05 18:13 | 55.39697 | 37.90472 | 597 ft | 14 kts | 146° |
| 2026-05-05 18:14 | 55.39629 | 37.90537 | 597 ft | 10 kts | 174° |
| 2026-05-05 18:14 | 55.39577 | 37.90462 | 597 ft | 10 kts | 236° |
| 2026-05-05 18:14 | 55.39540 | 37.90363 | 597 ft | 6 kts | 237° |
| 2026-05-05 18:14 | 55.39542 | 37.90300 | 597 ft | 6 kts | 313° |
| 2026-05-05 18:15 | 55.39560 | 37.90274 | 597 ft | 0 kts | 325° |
| 2026-05-05 18:15 | 55.39568 | 37.90265 | 597 ft | 11 kts | 325° |
| 2026-05-05 18:15 | 55.39860 | 37.89914 | 597 ft | 88 kts | 326° |
| 2026-05-05 18:15 | 55.40560 | 37.89069 | 598 ft | 152 kts | 326° |
| 2026-05-05 18:16 | 55.41557 | 37.87883 | 817 ft | 183 kts | 325° |
| 2026-05-05 18:16 | 55.42578 | 37.86597 | 1494 ft | 183 kts | 318° |
| 2026-05-05 18:16 | 55.43422 | 37.85032 | 2273 ft | 180 kts | 306° |
| 2026-05-05 18:16 | 55.44167 | 37.83306 | 3002 ft | 175 kts | 307° |
| 2026-05-05 18:17 | 55.44936 | 37.81655 | 3553 ft | 176 kts | 307° |
| 2026-05-05 18:17 | 55.45689 | 37.79927 | 3920 ft | 188 kts | 297° |
| 2026-05-05 18:17 | 55.46044 | 37.77629 | 3989 ft | 203 kts | 270° |
| 2026-05-05 18:17 | 55.45663 | 37.75178 | 4153 ft | 220 kts | 242° |
| 2026-05-05 18:18 | 55.44767 | 37.72842 | 4539 ft | 236 kts | 237° |
| 2026-05-05 18:18 | 55.43812 | 37.70486 | 4904 ft | 237 kts | 232° |
| 2026-05-05 18:18 | 55.42518 | 37.68742 | 4993 ft | 242 kts | 205° |
| 2026-05-05 18:18 | 55.40828 | 37.68250 | 5002 ft | 253 kts | 178° |
| 2026-05-05 18:19 | 55.39127 | 37.69205 | 5004 ft | 264 kts | 152° |
| 2026-05-05 18:19 | 55.37622 | 37.71016 | 5012 ft | 266 kts | 148° |
| 2026-05-05 18:19 | 55.36108 | 37.72899 | 5017 ft | 266 kts | 148° |
| 2026-05-05 18:19 | 55.34587 | 37.74764 | 5007 ft | 266 kts | 148° |
| 2026-05-05 18:20 | 55.33065 | 37.76610 | 5008 ft | 265 kts | 148° |
| 2026-05-05 18:20 | 55.31550 | 37.78456 | 5011 ft | 266 kts | 148° |
| 2026-05-05 18:20 | 55.30056 | 37.80275 | 5003 ft | 265 kts | 148° |
| 2026-05-05 18:20 | 55.28540 | 37.82107 | 5017 ft | 265 kts | 150° |
| 2026-05-05 18:21 | 55.26912 | 37.83622 | 5029 ft | 268 kts | 161° |
| 2026-05-05 18:21 | 55.25124 | 37.84639 | 5010 ft | 272 kts | 168° |
| 2026-05-05 18:21 | 55.23279 | 37.85460 | 5135 ft | 278 kts | 170° |
| 2026-05-05 18:21 | 55.21407 | 37.86265 | 5886 ft | 280 kts | 170° |
| 2026-05-05 18:22 | 55.19545 | 37.87076 | 6768 ft | 278 kts | 170° |
| 2026-05-05 18:22 | 55.17669 | 37.87899 | 7536 ft | 281 kts | 170° |
| 2026-05-05 18:22 | 55.15770 | 37.88734 | 8243 ft | 284 kts | 170° |
| 2026-05-05 18:22 | 55.13854 | 37.89582 | 8941 ft | 288 kts | 170° |
| 2026-05-05 18:23 | 55.11914 | 37.90423 | 9612 ft | 290 kts | 173° |
| 2026-05-05 18:23 | 55.09914 | 37.90823 | 10264 ft | 289 kts | 184° |
| 2026-05-05 18:23 | 55.07934 | 37.90613 | 10902 ft | 289 kts | 191° |
| 2026-05-05 18:23 | 55.05942 | 37.90177 | 11527 ft | 291 kts | 192° |
| 2026-05-05 18:24 | 55.03945 | 37.89714 | 12133 ft | 294 kts | 192° |
| 2026-05-05 18:24 | 55.01900 | 37.89264 | 12740 ft | 298 kts | 189° |
| 2026-05-05 18:24 | 54.99819 | 37.89310 | 13306 ft | 307 kts | 178° |
| 2026-05-05 18:24 | 54.97695 | 37.90074 | 13690 ft | 322 kts | 169° |
| 2026-05-05 18:25 | 54.95490 | 37.91248 | 13962 ft | 337 kts | 167° |
| 2026-05-05 18:25 | 54.94010 | 37.92083 | 14241 ft | 342 kts | 166° |
| 2026-05-05 18:25 | 54.90980 | 37.93795 | 14993 ft | 345 kts | 166° |
| 2026-05-05 18:25 | 54.88713 | 37.95051 | 15575 ft | 347 kts | 166° |
| 2026-05-05 18:26 | 54.86429 | 37.96304 | 16148 ft | 348 kts | 167° |
| 2026-05-05 18:26 | 54.84101 | 37.97573 | 16683 ft | 351 kts | 167° |
| 2026-05-05 18:26 | 54.81769 | 37.98812 | 17009 ft | 360 kts | 167° |
| 2026-05-05 18:26 | 54.79342 | 38.00082 | 17224 ft | 371 kts | 167° |
| 2026-05-05 18:27 | 54.76836 | 38.01397 | 17518 ft | 380 kts | 166° |
| 2026-05-05 18:27 | 54.74292 | 38.02736 | 17982 ft | 383 kts | 166° |
| 2026-05-05 18:27 | 54.71745 | 38.04075 | 18466 ft | 385 kts | 166° |
| 2026-05-05 18:27 | 54.69189 | 38.05418 | 18917 ft | 388 kts | 166° |
| 2026-05-05 18:28 | 54.64022 | 38.08160 | 19783 ft | 394 kts | 166° |
| 2026-05-05 18:28 | 54.61395 | 38.09565 | 20192 ft | 397 kts | 166° |
| 2026-05-05 18:28 | 54.58754 | 38.10973 | 20607 ft | 399 kts | 165° |
| 2026-05-05 18:29 | 54.56107 | 38.12385 | 21010 ft | 402 kts | 165° |
| 2026-05-05 18:29 | 54.53444 | 38.13801 | 21405 ft | 405 kts | 165° |
| 2026-05-05 18:29 | 54.50758 | 38.15231 | 21796 ft | 407 kts | 165° |
| 2026-05-05 18:29 | 54.48049 | 38.16675 | 22195 ft | 409 kts | 165° |
| 2026-05-05 18:30 | 54.45305 | 38.18132 | 22590 ft | 411 kts | 165° |
| 2026-05-05 18:30 | 54.42609 | 38.19567 | 22953 ft | 414 kts | 164° |
| 2026-05-05 18:30 | 54.39852 | 38.21031 | 23313 ft | 416 kts | 165° |
| 2026-05-05 18:30 | 54.37068 | 38.22507 | 23657 ft | 419 kts | 164° |
| 2026-05-05 18:31 | 54.34284 | 38.23934 | 23988 ft | 421 kts | 166° |
| 2026-05-05 18:31 | 54.31462 | 38.25172 | 24319 ft | 424 kts | 167° |
| 2026-05-05 18:31 | 54.28589 | 38.26421 | 24651 ft | 426 kts | 167° |
| 2026-05-05 18:31 | 54.25736 | 38.27656 | 24980 ft | 429 kts | 167° |
| 2026-05-05 18:32 | 54.22825 | 38.28920 | 25307 ft | 431 kts | 167° |
| 2026-05-05 18:32 | 54.19920 | 38.30176 | 25624 ft | 433 kts | 167° |
| 2026-05-05 18:32 | 54.16999 | 38.31436 | 25942 ft | 435 kts | 167° |
| 2026-05-05 18:32 | 54.14091 | 38.32688 | 26245 ft | 437 kts | 167° |
| 2026-05-05 18:33 | 54.11144 | 38.33956 | 26548 ft | 439 kts | 166° |
| 2026-05-05 18:33 | 54.08197 | 38.35223 | 26841 ft | 441 kts | 166° |
| 2026-05-05 18:33 | 54.05199 | 38.36510 | 27122 ft | 443 kts | 166° |
| 2026-05-05 18:33 | 54.02238 | 38.37780 | 27386 ft | 445 kts | 166° |
| 2026-05-05 18:34 | 53.99251 | 38.39057 | 27642 ft | 447 kts | 166° |
| 2026-05-05 18:34 | 53.96239 | 38.40344 | 27906 ft | 449 kts | 166° |
| 2026-05-05 18:34 | 53.93181 | 38.41647 | 28185 ft | 451 kts | 166° |
| 2026-05-05 18:34 | 53.90161 | 38.42935 | 28446 ft | 453 kts | 166° |
| 2026-05-05 18:35 | 53.87084 | 38.44246 | 28688 ft | 455 kts | 166° |
| 2026-05-05 18:35 | 53.84026 | 38.45547 | 28923 ft | 457 kts | 166° |
| 2026-05-05 18:35 | 53.80930 | 38.46860 | 29176 ft | 459 kts | 166° |
| 2026-05-05 18:35 | 53.77868 | 38.48156 | 29437 ft | 460 kts | 166° |
| 2026-05-05 18:36 | 53.74751 | 38.49452 | 29673 ft | 462 kts | 167° |
| 2026-05-05 18:36 | 53.71621 | 38.50528 | 29947 ft | 462 kts | 169° |
| 2026-05-05 18:36 | 53.68469 | 38.51564 | 30314 ft | 461 kts | 169° |
| 2026-05-05 18:36 | 53.65335 | 38.52598 | 30683 ft | 459 kts | 169° |
| 2026-05-05 18:37 | 53.62207 | 38.53632 | 31028 ft | 458 kts | 168° |
| 2026-05-05 18:37 | 53.59101 | 38.54657 | 31369 ft | 457 kts | 169° |
| 2026-05-05 18:37 | 53.55988 | 38.55681 | 31719 ft | 456 kts | 168° |
| 2026-05-05 18:37 | 53.52875 | 38.56702 | 32065 ft | 454 kts | 168° |
| 2026-05-05 18:38 | 53.49817 | 38.57704 | 32402 ft | 453 kts | 168° |
| 2026-05-05 18:38 | 53.46710 | 38.58721 | 32736 ft | 452 kts | 168° |
| 2026-05-05 18:38 | 53.43668 | 38.59715 | 33036 ft | 451 kts | 168° |
| 2026-05-05 18:38 | 53.40589 | 38.60720 | 33353 ft | 450 kts | 168° |
| 2026-05-05 18:39 | 53.37546 | 38.61713 | 33676 ft | 449 kts | 168° |
| 2026-05-05 18:39 | 53.34463 | 38.62715 | 33993 ft | 448 kts | 168° |
| 2026-05-05 18:39 | 53.31426 | 38.63701 | 34310 ft | 447 kts | 168° |
| 2026-05-05 18:39 | 53.28422 | 38.64675 | 34606 ft | 445 kts | 168° |
| 2026-05-05 18:40 | 53.25397 | 38.65656 | 34892 ft | 444 kts | 169° |
| 2026-05-05 18:40 | 53.22379 | 38.66634 | 35116 ft | 444 kts | 169° |
| 2026-05-05 18:40 | 53.19364 | 38.67609 | 35316 ft | 444 kts | 169° |
| 2026-05-05 18:40 | 53.16304 | 38.68595 | 35485 ft | 444 kts | 169° |
| 2026-05-05 18:41 | 53.13305 | 38.69561 | 35649 ft | 445 kts | 169° |
| 2026-05-05 18:41 | 53.10258 | 38.70540 | 35819 ft | 445 kts | 168° |
| 2026-05-05 18:41 | 53.07229 | 38.71514 | 35974 ft | 446 kts | 169° |
| 2026-05-05 18:41 | 53.04196 | 38.72488 | 36121 ft | 446 kts | 169° |
| 2026-05-05 18:42 | 53.01150 | 38.73465 | 36261 ft | 447 kts | 169° |
| 2026-05-05 18:42 | 52.98097 | 38.74441 | 36390 ft | 447 kts | 169° |
| 2026-05-05 18:42 | 52.95065 | 38.75410 | 36510 ft | 448 kts | 169° |
| 2026-05-05 18:42 | 52.91988 | 38.76390 | 36639 ft | 448 kts | 169° |
| 2026-05-05 18:43 | 52.88941 | 38.77360 | 36772 ft | 449 kts | 169° |
| 2026-05-05 18:43 | 52.85892 | 38.78330 | 36913 ft | 449 kts | 169° |
| 2026-05-05 18:43 | 52.79747 | 38.80278 | 36917 ft | 450 kts | 169° |
| 2026-05-05 18:44 | 52.73622 | 38.82215 | 36920 ft | 451 kts | 168° |
| 2026-05-05 18:44 | 52.67449 | 38.84165 | 36928 ft | 451 kts | 168° |
| 2026-05-05 18:45 | 52.61337 | 38.86089 | 36928 ft | 451 kts | 168° |
| 2026-05-05 18:45 | 52.55203 | 38.88014 | 36931 ft | 451 kts | 168° |
| 2026-05-05 18:46 | 52.49056 | 38.89935 | 36930 ft | 451 kts | 168° |
| 2026-05-05 18:46 | 52.42960 | 38.92355 | 36929 ft | 450 kts | 161° |
| 2026-05-05 18:47 | 52.37173 | 38.95974 | 36931 ft | 449 kts | 154° |
| 2026-05-05 18:47 | 52.31706 | 39.00790 | 36933 ft | 447 kts | 146° |
| 2026-05-05 18:48 | 52.26527 | 39.06365 | 36929 ft | 447 kts | 145° |
| 2026-05-05 18:48 | 52.21362 | 39.11917 | 36925 ft | 446 kts | 145° |
| 2026-05-05 18:49 | 52.16180 | 39.17445 | 36930 ft | 446 kts | 145° |
| 2026-05-05 18:49 | 52.11028 | 39.22923 | 36938 ft | 446 kts | 145° |
| 2026-05-05 18:50 | 52.05857 | 39.28399 | 36936 ft | 446 kts | 145° |
| 2026-05-05 18:50 | 52.00664 | 39.33886 | 36930 ft | 446 kts | 145° |
| 2026-05-05 18:51 | 51.95464 | 39.39367 | 36935 ft | 446 kts | 145° |
| 2026-05-05 18:51 | 51.90307 | 39.44791 | 36931 ft | 446 kts | 145° |
| 2026-05-05 18:52 | 51.85096 | 39.50258 | 36937 ft | 446 kts | 146° |
| 2026-05-05 18:52 | 51.79915 | 39.55670 | 36929 ft | 446 kts | 146° |
| 2026-05-05 18:53 | 51.74610 | 39.60766 | 36943 ft | 446 kts | 151° |
| 2026-05-05 18:53 | 51.68948 | 39.64899 | 36934 ft | 447 kts | 158° |
| 2026-05-05 18:54 | 51.63072 | 39.68153 | 36949 ft | 448 kts | 160° |
| 2026-05-05 18:54 | 51.57211 | 39.71330 | 36946 ft | 447 kts | 160° |
| 2026-05-05 18:55 | 51.51344 | 39.74507 | 36957 ft | 447 kts | 160° |
| 2026-05-05 18:55 | 51.45437 | 39.77696 | 36952 ft | 447 kts | 160° |
| 2026-05-05 18:56 | 51.39592 | 39.80843 | 36952 ft | 447 kts | 160° |
| 2026-05-05 18:56 | 51.33695 | 39.84008 | 36954 ft | 447 kts | 160° |
| 2026-05-05 18:57 | 51.27851 | 39.87137 | 36951 ft | 447 kts | 160° |
| 2026-05-05 18:57 | 51.21973 | 39.90278 | 36969 ft | 447 kts | 160° |
| 2026-05-05 18:58 | 51.16049 | 39.93435 | 36962 ft | 447 kts | 160° |
| 2026-05-05 18:58 | 51.10192 | 39.96545 | 36949 ft | 446 kts | 160° |
| 2026-05-05 18:59 | 51.04297 | 39.99659 | 36954 ft | 446 kts | 160° |
| 2026-05-05 18:59 | 50.98556 | 40.02687 | 36968 ft | 446 kts | 160° |
| 2026-05-05 19:00 | 50.92686 | 40.05777 | 36966 ft | 446 kts | 160° |
| 2026-05-05 19:00 | 50.86773 | 40.08878 | 36962 ft | 447 kts | 160° |
| 2026-05-05 19:01 | 50.80875 | 40.11959 | 36967 ft | 447 kts | 160° |
| 2026-05-05 19:01 | 50.75001 | 40.15022 | 36972 ft | 447 kts | 160° |
| 2026-05-05 19:02 | 50.69144 | 40.18070 | 36971 ft | 447 kts | 160° |
| 2026-05-05 19:02 | 50.63229 | 40.21141 | 36972 ft | 447 kts | 160° |
| 2026-05-05 19:03 | 50.57356 | 40.24184 | 36971 ft | 448 kts | 160° |
| 2026-05-05 19:03 | 50.51473 | 40.27221 | 36970 ft | 447 kts | 160° |
| 2026-05-05 19:04 | 50.45557 | 40.30269 | 36974 ft | 447 kts | 160° |
| 2026-05-05 19:04 | 50.39645 | 40.33307 | 36975 ft | 447 kts | 160° |
| 2026-05-05 19:05 | 50.33783 | 40.36311 | 36976 ft | 447 kts | 160° |
| 2026-05-05 19:05 | 50.27859 | 40.39340 | 36976 ft | 448 kts | 160° |
| 2026-05-05 19:06 | 50.21976 | 40.42340 | 36977 ft | 448 kts | 160° |
| 2026-05-05 19:06 | 50.16070 | 40.45345 | 36976 ft | 448 kts | 160° |
| 2026-05-05 19:07 | 50.10176 | 40.48334 | 36978 ft | 447 kts | 160° |
| 2026-05-05 19:07 | 50.04240 | 40.51334 | 36980 ft | 448 kts | 160° |
| 2026-05-05 19:08 | 49.98346 | 40.54293 | 36983 ft | 448 kts | 160° |
| 2026-05-05 19:08 | 49.92422 | 40.57263 | 36980 ft | 447 kts | 160° |
| 2026-05-05 19:09 | 49.86530 | 40.60212 | 36982 ft | 447 kts | 160° |
| 2026-05-05 19:09 | 49.80624 | 40.63161 | 36969 ft | 447 kts | 160° |
| 2026-05-05 19:10 | 49.74699 | 40.66111 | 36979 ft | 447 kts | 161° |
| 2026-05-05 19:10 | 49.68766 | 40.68786 | 36974 ft | 448 kts | 165° |
| 2026-05-05 19:11 | 49.62626 | 40.70472 | 36980 ft | 450 kts | 172° |
| 2026-05-05 19:11 | 49.56398 | 40.71058 | 36982 ft | 452 kts | 178° |
| 2026-05-05 19:12 | 49.50109 | 40.70875 | 36982 ft | 452 kts | 180° |
| 2026-05-05 19:12 | 49.43852 | 40.70695 | 36982 ft | 452 kts | 179° |
| 2026-05-05 19:13 | 49.37599 | 40.70520 | 36981 ft | 451 kts | 179° |
| 2026-05-05 19:13 | 49.31327 | 40.70353 | 36985 ft | 451 kts | 179° |
| 2026-05-05 19:14 | 49.25064 | 40.70188 | 36985 ft | 451 kts | 179° |
| 2026-05-05 19:14 | 49.18778 | 40.70026 | 36985 ft | 452 kts | 179° |
| 2026-05-05 19:15 | 49.12532 | 40.69864 | 36990 ft | 452 kts | 179° |
| 2026-05-05 19:15 | 49.06233 | 40.69701 | 36990 ft | 452 kts | 179° |
| 2026-05-05 19:16 | 48.99977 | 40.69540 | 36990 ft | 452 kts | 179° |
| 2026-05-05 19:16 | 48.93692 | 40.69266 | 36996 ft | 452 kts | 182° |
| 2026-05-05 19:17 | 48.87472 | 40.68086 | 36992 ft | 454 kts | 188° |
| 2026-05-05 19:17 | 48.81258 | 40.66259 | 36987 ft | 455 kts | 189° |
| 2026-05-05 19:18 | 48.75067 | 40.64451 | 36996 ft | 455 kts | 189° |
| 2026-05-05 19:18 | 48.68874 | 40.62649 | 36998 ft | 455 kts | 189° |
| 2026-05-05 19:19 | 48.62660 | 40.60846 | 36996 ft | 455 kts | 189° |
| 2026-05-05 19:19 | 48.56462 | 40.59053 | 36996 ft | 455 kts | 189° |
| 2026-05-05 19:20 | 48.50226 | 40.57254 | 36995 ft | 456 kts | 189° |
| 2026-05-05 19:20 | 48.44047 | 40.55478 | 36997 ft | 456 kts | 189° |
| 2026-05-05 19:21 | 48.37809 | 40.53700 | 36993 ft | 456 kts | 189° |
| 2026-05-05 19:21 | 48.31578 | 40.51931 | 37001 ft | 456 kts | 188° |
| 2026-05-05 19:22 | 48.25349 | 40.50167 | 36996 ft | 457 kts | 188° |
| 2026-05-05 19:22 | 48.19123 | 40.48410 | 36988 ft | 457 kts | 188° |
| 2026-05-05 19:23 | 48.12875 | 40.46651 | 36988 ft | 457 kts | 188° |
| 2026-05-05 19:23 | 48.06657 | 40.44902 | 36990 ft | 458 kts | 188° |
| 2026-05-05 19:24 | 48.00389 | 40.43145 | 36987 ft | 458 kts | 188° |
| 2026-05-05 19:24 | 47.94171 | 40.41405 | 36981 ft | 458 kts | 188° |
| 2026-05-05 19:25 | 47.87945 | 40.39668 | 36989 ft | 457 kts | 188° |
| 2026-05-05 19:25 | 47.81662 | 40.38383 | 36993 ft | 454 kts | 182° |
| 2026-05-05 19:26 | 47.75391 | 40.38185 | 36989 ft | 452 kts | 175° |
| 2026-05-05 19:26 | 47.69143 | 40.38821 | 36999 ft | 451 kts | 173° |
| 2026-05-05 19:27 | 47.62902 | 40.39497 | 36996 ft | 451 kts | 173° |
| 2026-05-05 19:27 | 47.56661 | 40.40163 | 36998 ft | 450 kts | 174° |
| 2026-05-05 19:28 | 47.50442 | 40.40823 | 37000 ft | 450 kts | 173° |
| 2026-05-05 19:28 | 47.44208 | 40.41486 | 37000 ft | 450 kts | 173° |
| 2026-05-05 19:29 | 47.38002 | 40.42143 | 36994 ft | 449 kts | 173° |
| 2026-05-05 19:29 | 47.31789 | 40.42799 | 37000 ft | 449 kts | 173° |
| 2026-05-05 19:30 | 47.25560 | 40.43456 | 36995 ft | 449 kts | 174° |
| 2026-05-05 19:30 | 47.19326 | 40.44111 | 37001 ft | 449 kts | 173° |
| 2026-05-05 19:31 | 47.13146 | 40.44747 | 36992 ft | 449 kts | 175° |
| 2026-05-05 19:31 | 47.06890 | 40.44945 | 36992 ft | 449 kts | 177° |
| 2026-05-05 19:32 | 47.00665 | 40.45082 | 36992 ft | 449 kts | 177° |
| 2026-05-05 19:32 | 46.94420 | 40.45219 | 36990 ft | 449 kts | 177° |
| 2026-05-05 19:33 | 46.88204 | 40.45356 | 36989 ft | 449 kts | 177° |
| 2026-05-05 19:33 | 46.81949 | 40.45491 | 37000 ft | 449 kts | 177° |
| 2026-05-05 19:34 | 46.75752 | 40.45624 | 37005 ft | 448 kts | 177° |
| 2026-05-05 19:35 | 46.66396 | 40.45827 | 37001 ft | 449 kts | 177° |
| 2026-05-05 19:35 | 46.60156 | 40.45961 | 37008 ft | 449 kts | 177° |
| 2026-05-05 19:36 | 46.53932 | 40.46095 | 37001 ft | 449 kts | 177° |
| 2026-05-05 19:36 | 46.47704 | 40.46228 | 37013 ft | 449 kts | 177° |
| 2026-05-05 19:36 | 46.44580 | 40.46294 | 37186 ft | 449 kts | 177° |
| 2026-05-05 19:37 | 46.41463 | 40.46345 | 37100 ft | 449 kts | 178° |
| 2026-05-05 19:37 | 46.35214 | 40.45805 | 37038 ft | 451 kts | 184° |
| 2026-05-05 19:38 | 46.29065 | 40.44251 | 37012 ft | 453 kts | 191° |
| 2026-05-05 19:38 | 46.22960 | 40.41947 | 37012 ft | 454 kts | 192° |
| 2026-05-05 19:39 | 46.16859 | 40.39627 | 37014 ft | 453 kts | 192° |
| 2026-05-05 19:39 | 46.10757 | 40.37319 | 37011 ft | 453 kts | 192° |
| 2026-05-05 19:40 | 46.04662 | 40.35019 | 37009 ft | 453 kts | 192° |
| 2026-05-05 19:40 | 45.98602 | 40.32738 | 37013 ft | 453 kts | 192° |
| 2026-05-05 19:41 | 45.92529 | 40.30460 | 37009 ft | 453 kts | 192° |
| 2026-05-05 19:41 | 45.86436 | 40.28176 | 37008 ft | 452 kts | 192° |
| 2026-05-05 19:42 | 45.80349 | 40.25875 | 37008 ft | 452 kts | 193° |
| 2026-05-05 19:42 | 45.74458 | 40.22944 | 36995 ft | 453 kts | 200° |
| 2026-05-05 19:43 | 45.68735 | 40.19119 | 37003 ft | 454 kts | 203° |
| 2026-05-05 19:43 | 45.63075 | 40.15174 | 37001 ft | 453 kts | 203° |
| 2026-05-05 19:44 | 45.57448 | 40.11273 | 36995 ft | 453 kts | 203° |
| 2026-05-05 19:44 | 45.51763 | 40.07342 | 36991 ft | 453 kts | 203° |
| 2026-05-05 19:45 | 45.45988 | 40.03885 | 36995 ft | 451 kts | 197° |
| 2026-05-05 19:45 | 45.40027 | 40.01412 | 36992 ft | 448 kts | 191° |
| 2026-05-05 19:46 | 45.33928 | 39.99929 | 36993 ft | 445 kts | 184° |
| 2026-05-05 19:46 | 45.27790 | 39.98918 | 36997 ft | 445 kts | 185° |
| 2026-05-05 19:47 | 45.21646 | 39.97892 | 36992 ft | 445 kts | 185° |
| 2026-05-05 19:47 | 45.15503 | 39.96867 | 36989 ft | 445 kts | 185° |
| 2026-05-05 19:48 | 45.09370 | 39.95847 | 36987 ft | 445 kts | 185° |
| 2026-05-05 19:48 | 45.03246 | 39.94830 | 36986 ft | 444 kts | 185° |
| 2026-05-05 19:49 | 44.97132 | 39.93816 | 36988 ft | 444 kts | 185° |
| 2026-05-05 19:49 | 44.90987 | 39.92799 | 36986 ft | 444 kts | 185° |
| 2026-05-05 19:50 | 44.84846 | 39.91791 | 36990 ft | 444 kts | 185° |
| 2026-05-05 19:50 | 44.78702 | 39.90785 | 36994 ft | 444 kts | 185° |
| 2026-05-05 19:51 | 44.72585 | 39.89787 | 36841 ft | 444 kts | 185° |
| 2026-05-05 19:51 | 44.69530 | 39.89289 | 36619 ft | 442 kts | 185° |
| 2026-05-05 19:51 | 44.66478 | 39.88791 | 36414 ft | 439 kts | 185° |
| 2026-05-05 19:51 | 44.63444 | 39.88298 | 36199 ft | 436 kts | 185° |
| 2026-05-05 19:52 | 44.60457 | 39.87811 | 35987 ft | 433 kts | 185° |
| 2026-05-05 19:52 | 44.57470 | 39.87327 | 35777 ft | 431 kts | 185° |
| 2026-05-05 19:52 | 44.54529 | 39.86850 | 35571 ft | 430 kts | 185° |
| 2026-05-05 19:52 | 44.51543 | 39.86367 | 35356 ft | 430 kts | 185° |
| 2026-05-05 19:53 | 44.48566 | 39.85885 | 35139 ft | 430 kts | 185° |
| 2026-05-05 19:53 | 44.45610 | 39.85416 | 34841 ft | 431 kts | 184° |
| 2026-05-05 19:53 | 44.42652 | 39.85124 | 34427 ft | 430 kts | 180° |
| 2026-05-05 19:53 | 44.39663 | 39.85090 | 33903 ft | 431 kts | 176° |
| 2026-05-05 19:54 | 44.36653 | 39.85321 | 33255 ft | 434 kts | 173° |
| 2026-05-05 19:54 | 44.33683 | 39.85818 | 32540 ft | 437 kts | 169° |
| 2026-05-05 19:54 | 44.30662 | 39.86600 | 31751 ft | 441 kts | 165° |
| 2026-05-05 19:54 | 44.27723 | 39.87635 | 30924 ft | 444 kts | 162° |
| 2026-05-05 19:55 | 44.24753 | 39.88817 | 30008 ft | 448 kts | 161° |
| 2026-05-05 19:55 | 44.21742 | 39.90019 | 29279 ft | 445 kts | 162° |
| 2026-05-05 19:55 | 44.18792 | 39.91193 | 28772 ft | 439 kts | 162° |
| 2026-05-05 19:55 | 44.15896 | 39.92340 | 28280 ft | 433 kts | 162° |
| 2026-05-05 19:56 | 44.13040 | 39.93470 | 27813 ft | 426 kts | 162° |
| 2026-05-05 19:56 | 44.10195 | 39.94593 | 27332 ft | 421 kts | 162° |
| 2026-05-05 19:56 | 44.07438 | 39.95681 | 26846 ft | 416 kts | 162° |
| 2026-05-05 19:56 | 44.04666 | 39.96773 | 26355 ft | 411 kts | 162° |
| 2026-05-05 19:57 | 44.01920 | 39.97856 | 25865 ft | 407 kts | 162° |
| 2026-05-05 19:57 | 43.99224 | 39.98917 | 25389 ft | 403 kts | 163° |
| 2026-05-05 19:57 | 43.96557 | 39.99965 | 24919 ft | 398 kts | 163° |
| 2026-05-05 19:57 | 43.93918 | 40.01002 | 24453 ft | 394 kts | 163° |
| 2026-05-05 19:58 | 43.91283 | 40.02041 | 23977 ft | 390 kts | 163° |
| 2026-05-05 19:58 | 43.88715 | 40.03053 | 23504 ft | 387 kts | 163° |
| 2026-05-05 19:58 | 43.86127 | 40.04072 | 23028 ft | 384 kts | 163° |
| 2026-05-05 19:58 | 43.83555 | 40.05083 | 22543 ft | 381 kts | 163° |
| 2026-05-05 19:59 | 43.81045 | 40.06071 | 22076 ft | 378 kts | 163° |
| 2026-05-05 19:59 | 43.78521 | 40.07062 | 21599 ft | 375 kts | 163° |
| 2026-05-05 19:59 | 43.76029 | 40.08039 | 21120 ft | 372 kts | 163° |
| 2026-05-05 19:59 | 43.73543 | 40.09013 | 20633 ft | 370 kts | 163° |
| 2026-05-05 20:00 | 43.71075 | 40.09929 | 20162 ft | 367 kts | 168° |
| 2026-05-05 20:00 | 43.68563 | 40.10063 | 20004 ft | 356 kts | 185° |
| 2026-05-05 20:00 | 43.66199 | 40.09260 | 19869 ft | 348 kts | 199° |
| 2026-05-05 20:00 | 43.63979 | 40.07919 | 19496 ft | 344 kts | 203° |
| 2026-05-05 20:01 | 43.61833 | 40.06536 | 19140 ft | 339 kts | 203° |
| 2026-05-05 20:01 | 43.59738 | 40.05190 | 18784 ft | 334 kts | 203° |
| 2026-05-05 20:01 | 43.57652 | 40.03864 | 18455 ft | 329 kts | 202° |
| 2026-05-05 20:01 | 43.55563 | 40.02550 | 18136 ft | 324 kts | 202° |
| 2026-05-05 20:02 | 43.53530 | 40.01275 | 17804 ft | 319 kts | 202° |
| 2026-05-05 20:02 | 43.51524 | 40.00020 | 17434 ft | 316 kts | 202° |
| 2026-05-05 20:02 | 43.49530 | 39.98774 | 17026 ft | 314 kts | 202° |
| 2026-05-05 20:02 | 43.47543 | 39.97533 | 16612 ft | 313 kts | 202° |
| 2026-05-05 20:03 | 43.45547 | 39.96336 | 16179 ft | 312 kts | 200° |
| 2026-05-05 20:03 | 43.43525 | 39.95340 | 15705 ft | 312 kts | 197° |
| 2026-05-05 20:03 | 43.41456 | 39.94392 | 15242 ft | 313 kts | 197° |
| 2026-05-05 20:03 | 43.39391 | 39.93454 | 14808 ft | 312 kts | 197° |
| 2026-05-05 20:04 | 43.37354 | 39.92529 | 14390 ft | 310 kts | 197° |
| 2026-05-05 20:04 | 43.35297 | 39.91594 | 13971 ft | 309 kts | 197° |
| 2026-05-05 20:04 | 43.33255 | 39.90665 | 13560 ft | 307 kts | 197° |
| 2026-05-05 20:04 | 43.31231 | 39.89744 | 13155 ft | 306 kts | 197° |
| 2026-05-05 20:05 | 43.29231 | 39.88834 | 12744 ft | 304 kts | 197° |
| 2026-05-05 20:05 | 43.27228 | 39.87925 | 12336 ft | 302 kts | 197° |
| 2026-05-05 20:05 | 43.25250 | 39.87028 | 11959 ft | 300 kts | 197° |
| 2026-05-05 20:05 | 43.23274 | 39.86132 | 11564 ft | 298 kts | 197° |
| 2026-05-05 20:06 | 43.21320 | 39.85246 | 11185 ft | 297 kts | 197° |
| 2026-05-05 20:06 | 43.19374 | 39.84365 | 10810 ft | 296 kts | 197° |
| 2026-05-05 20:06 | 43.17406 | 39.83474 | 10420 ft | 294 kts | 197° |
| 2026-05-05 20:06 | 43.15471 | 39.82600 | 10034 ft | 293 kts | 197° |
| 2026-05-05 20:07 | 43.13556 | 39.81735 | 9686 ft | 291 kts | 197° |
| 2026-05-05 20:07 | 43.11633 | 39.80866 | 9331 ft | 290 kts | 197° |
| 2026-05-05 20:07 | 43.09723 | 39.80004 | 8938 ft | 287 kts | 197° |
| 2026-05-05 20:07 | 43.07843 | 39.79156 | 8587 ft | 285 kts | 197° |
| 2026-05-05 20:08 | 43.06054 | 39.77984 | 8210 ft | 286 kts | 219° |
| 2026-05-05 20:08 | 43.04940 | 39.75803 | 7856 ft | 285 kts | 251° |
| 2026-05-05 20:08 | 43.04759 | 39.73135 | 7410 ft | 283 kts | 281° |
| 2026-05-05 20:08 | 43.05323 | 39.70598 | 7061 ft | 280 kts | 290° |
| 2026-05-05 20:09 | 43.05958 | 39.68100 | 6690 ft | 279 kts | 290° |
| 2026-05-05 20:09 | 43.06576 | 39.65570 | 6327 ft | 277 kts | 289° |
| 2026-05-05 20:09 | 43.07288 | 39.63143 | 5935 ft | 274 kts | 304° |
| 2026-05-05 20:09 | 43.08631 | 39.61369 | 5525 ft | 269 kts | 331° |
| 2026-05-05 20:10 | 43.10366 | 39.60636 | 5327 ft | 264 kts | 359° |
| 2026-05-05 20:10 | 43.12154 | 39.61062 | 5206 ft | 263 kts | 25° |
| 2026-05-05 20:10 | 43.13620 | 39.62544 | 5083 ft | 263 kts | 47° |
| 2026-05-05 20:10 | 43.14862 | 39.64370 | 4964 ft | 262 kts | 47° |
| 2026-05-05 20:11 | 43.16095 | 39.66194 | 4811 ft | 261 kts | 47° |
| 2026-05-05 20:11 | 43.17325 | 39.68007 | 4631 ft | 260 kts | 47° |
| 2026-05-05 20:11 | 43.18550 | 39.69803 | 4435 ft | 252 kts | 47° |
| 2026-05-05 20:11 | 43.19720 | 39.71511 | 4184 ft | 246 kts | 47° |
| 2026-05-05 20:12 | 43.20866 | 39.73182 | 4107 ft | 233 kts | 47° |
| 2026-05-05 20:12 | 43.21952 | 39.74767 | 3996 ft | 224 kts | 46° |
| 2026-05-05 20:12 | 43.23021 | 39.76323 | 3652 ft | 225 kts | 47° |
| 2026-05-05 20:12 | 43.24100 | 39.77895 | 3330 ft | 225 kts | 47° |
| 2026-05-05 20:13 | 43.25158 | 39.79437 | 3025 ft | 224 kts | 47° |
| 2026-05-05 20:13 | 43.26239 | 39.81004 | 2709 ft | 224 kts | 44° |
| 2026-05-05 20:13 | 43.27432 | 39.82346 | 2410 ft | 222 kts | 34° |
| 2026-05-05 20:13 | 43.28744 | 39.83453 | 2112 ft | 221 kts | 28° |
| 2026-05-05 20:14 | 43.30094 | 39.84449 | 1985 ft | 219 kts | 27° |
| 2026-05-05 20:14 | 43.31401 | 39.85404 | 1965 ft | 209 kts | 28° |
| 2026-05-05 20:14 | 43.32635 | 39.86323 | 2039 ft | 191 kts | 28° |
| 2026-05-05 20:14 | 43.33744 | 39.87159 | 2026 ft | 172 kts | 28° |
| 2026-05-05 20:15 | 43.34755 | 39.87923 | 1837 ft | 163 kts | 28° |
| 2026-05-05 20:15 | 43.35723 | 39.88654 | 1618 ft | 151 kts | 28° |
| 2026-05-05 20:15 | 43.36623 | 39.89333 | 1475 ft | 144 kts | 28° |
| 2026-05-05 20:15 | 43.37477 | 39.89977 | 1268 ft | 139 kts | 27° |
| 2026-05-05 20:16 | 43.38335 | 39.90623 | 1107 ft | 139 kts | 27° |
| 2026-05-05 20:16 | 43.39182 | 39.91260 | 932 ft | 138 kts | 27° |
| 2026-05-05 20:16 | 43.40019 | 39.91888 | 759 ft | 138 kts | 27° |
| 2026-05-05 20:16 | 43.40864 | 39.92519 | 580 ft | 137 kts | 27° |
| 2026-05-05 20:17 | 43.41690 | 39.93151 | 427 ft | 137 kts | 28° |
| 2026-05-05 20:17 | 43.42536 | 39.93782 | 230 ft | 136 kts | 25° |
| 2026-05-05 20:17 | 43.43370 | 39.94410 | 106 ft | 137 kts | 27° |
| 2026-05-05 20:17 | 43.44157 | 39.95003 | 58 ft | 116 kts | 29° |
| 2026-05-05 20:18 | 43.44716 | 39.95427 | 67 ft | 62 kts | 28° |
| 2026-05-05 20:18 | 43.44981 | 39.95626 | 70 ft | 34 kts | 27° |
| 2026-05-05 20:18 | 43.45162 | 39.95762 | 67 ft | 15 kts | 29° |
| 2026-05-05 20:18 | 43.45247 | 39.95826 | 68 ft | 11 kts | 28° |
| 2026-05-05 20:19 | 43.45283 | 39.95833 | 69 ft | 3 kts | 320° |
| 2026-05-05 20:19 | 43.45287 | 39.95799 | 69 ft | 5 kts | 259° |
| 2026-05-05 20:19 | 43.45262 | 39.95727 | 68 ft | 10 kts | 240° |
| 2026-05-05 20:19 | 43.45225 | 39.95640 | 68 ft | 10 kts | 239° |
| 2026-05-05 20:20 | 43.45187 | 39.95557 | 70 ft | 9 kts | 235° |
| 2026-05-05 20:20 | 43.45150 | 39.95485 | 71 ft | 8 kts | 235° |
| 2026-05-05 20:20 | 43.45116 | 39.95417 | 72 ft | 8 kts | 236° |
| 2026-05-05 20:20 | 43.45084 | 39.95334 | 71 ft | 11 kts | 244° |
| 2026-05-05 20:21 | 43.45055 | 39.95248 | 66 ft | 11 kts | 245° |
| 2026-05-05 20:21 | 43.45027 | 39.95168 | 61 ft | 10 kts | 245° |
| 2026-05-05 20:21 | 43.45014 | 39.95130 | 58 ft | 0 kts | 244° |
| 2026-05-05 20:21 | 43.45012 | 39.95125 | 58 ft | 1 kts | 244° |
| 2026-05-05 20:22 | 43.44994 | 39.95086 | 56 ft | 7 kts | 228° |
| 2026-05-05 20:22 | 43.44953 | 39.95012 | 53 ft | 11 kts | 242° |
| 2026-05-05 20:22 | 43.44918 | 39.94910 | 53 ft | 12 kts | 245° |
| 2026-05-05 20:22 | 43.44882 | 39.94802 | 53 ft | 13 kts | 245° |
| 2026-05-05 20:23 | 43.44841 | 39.94681 | 50 ft | 11 kts | 245° |
| 2026-05-05 20:23 | 43.44816 | 39.94609 | 49 ft | 8 kts | 245° |
| 2026-05-05 20:23 | 43.44791 | 39.94535 | 51 ft | 7 kts | 245° |
| 2026-05-05 20:23 | 43.44780 | 39.94498 | 53 ft | 1 kts | 268° |
| 2026-05-05 20:24 | 43.44787 | 39.94479 | 53 ft | 4 kts | 315° |
| 2026-05-05 20:24 | 43.44807 | 39.94461 | 54 ft | 2 kts | 333° |
| 2026-05-05 20:24 | 43.44819 | 39.94453 | 55 ft | 1 kts | 333° |
| 2026-05-05 20:24 | 43.44826 | 39.94449 | 55 ft | 0 kts | 334° |
| 2026-05-05 20:25 | 43.44835 | 39.94443 | 56 ft | 1 kts | 334° |
| 2026-05-05 20:25 | 43.44836 | 39.94442 | 56 ft | 0 kts | 334° |
| 2026-05-05 20:26 | 43.44832 | 39.94445 | 55 ft | 0 kts | 334° |